Time;durP1;ratioP1;P1;durP2;ratioP2;P2;SDS_P1;SDS_P2;PMS_P1;PMS_P2;Temp;Humidity;BMP_temperature;BMP_pressure;BME280_temperature;BME280_humidity;BME280_pressure;Samples;Min_cycle;Max_cycle;Signal;HPM_P1;HPM_P2
2022/03/22 00:01:44;;;;;;;54.60;37.72;;;13.80;99.90;;;14.07;54.53;102902.03;5114124;28;20066;-68
2022/03/22 00:04:13;;;;;;;59.35;38.47;;;13.80;99.90;;;11.81;54.53;102513.31;5113766;28;20489;-68
2022/03/22 00:06:43;;;;;;;57.08;38.70;;;13.80;99.90;;;14.04;54.56;102901.97;5095800;28;20047;-68
2022/03/22 00:09:12;;;;;;;57.72;38.17;;;13.80;99.90;;;14.06;54.89;102906.47;5095762;28;20481;-68
2022/03/22 00:11:41;;;;;;;55.22;39.03;;;13.70;99.90;;;14.00;54.80;102906.38;5095387;28;20060;-69
2022/03/22 00:14:09;;;;;;;53.20;38.20;;;13.70;99.90;;;13.98;54.95;102889.50;5094951;28;20074;-68
2022/03/22 00:16:38;;;;;;;56.85;39.13;;;13.70;99.90;;;13.98;54.97;102909.88;5113596;28;20062;-69
2022/03/22 00:19:27;;;;;;;59.15;38.88;;;13.70;99.90;;;14.00;54.96;102906.38;5113487;28;20493;-69
2022/03/22 00:21:57;;;;;;;60.13;40.15;;;13.70;99.90;;;13.82;55.28;102884.81;5113551;28;20043;-68
2022/03/22 00:24:26;;;;;;;58.25;38.97;;;13.60;99.90;;;13.85;55.38;102894.59;5113607;28;20046;-69
2022/03/22 00:26:55;;;;;;;60.90;40.13;;;13.60;99.90;;;13.81;55.60;102884.78;5113781;28;20047;-68
2022/03/22 00:29:24;;;;;;;58.38;41.03;;;13.60;99.90;;;13.67;55.60;102862.41;5113765;28;20040;-68
2022/03/22 00:31:56;;;;;;;60.45;39.90;;;13.70;99.90;;;13.92;55.60;102907.13;5113426;28;20035;-68
2022/03/22 00:34:25;;;;;;;60.95;40.75;;;13.60;99.90;;;13.85;55.85;102908.81;5113754;28;20420;-68
2022/03/22 00:36:56;;;;;;;63.35;40.60;;;13.60;99.90;;;13.80;56.10;102912.28;5113399;28;20040;-69
2022/03/22 00:39:26;;;;;;;59.50;40.53;;;13.60;99.90;;;13.61;56.42;102886.28;5113466;28;20051;-68
2022/03/22 00:41:55;;;;;;;56.42;41.38;;;13.50;99.90;;;13.72;56.52;102897.97;5113660;28;20116;-68
2022/03/22 00:44:25;;;;;;;58.33;40.30;;;13.50;99.90;;;13.82;56.57;102914.06;5113361;28;20046;-68
2022/03/22 00:46:55;;;;;;;60.70;41.17;;;13.50;99.90;;;13.70;56.87;102913.00;5113352;28;20118;-68
2022/03/22 00:49:24;;;;;;;61.85;41.65;;;13.50;99.90;;;13.64;57.02;102902.28;5113673;28;20047;-69
2022/03/22 00:51:53;;;;;;;62.17;41.47;;;13.40;99.90;;;13.67;57.22;102907.63;5113460;28;20451;-68
2022/03/22 00:54:23;;;;;;;64.38;43.45;;;13.40;99.90;;;13.67;57.01;102911.19;5113241;28;20118;-68
2022/03/22 00:56:54;;;;;;;;;;;13.40;99.90;;;13.56;57.44;102907.47;5113912;28;20044;-69
2022/03/22 01:02:09;;;;;;;69.43;41.47;;;13.30;99.90;;;13.32;57.50;102857.44;5113447;28;20071;-68
2022/03/22 01:04:38;;;;;;;62.38;43.63;;;13.30;99.90;;;13.45;57.60;102883.34;5095167;28;20374;-69
2022/03/22 01:07:06;;;;;;;61.20;41.60;;;13.30;99.90;;;13.40;57.84;102878.84;5113116;28;20508;-69
2022/03/22 01:09:35;;;;;;;56.38;41.42;;;13.30;99.90;;;11.55;57.98;102547.25;5113120;28;20400;-69
2022/03/22 01:12:07;;;;;;;68.60;44.22;;;13.20;99.90;;;13.56;58.38;102913.69;5112873;28;20138;-68
2022/03/22 01:14:38;;;;;;;62.20;42.30;;;13.30;99.90;;;13.35;58.41;102867.25;5113449;28;20373;-69
2022/03/22 01:17:07;;;;;;;;;;;13.30;99.90;;;13.50;58.37;102900.28;5113549;28;20035;-69
2022/03/22 01:19:38;;;;;;;62.75;43.13;;;13.30;99.90;;;13.51;58.47;102895.88;5113315;28;19923;-68
2022/03/22 01:22:07;;;;;;;63.63;43.03;;;13.30;99.90;;;13.52;58.60;102902.97;5113377;28;20181;-68
2022/03/22 01:24:35;;;;;;;60.42;42.10;;;13.20;99.90;;;13.54;58.73;102902.13;5113661;28;20090;-68
2022/03/22 01:27:06;;;;;;;64.28;42.47;;;13.20;99.90;;;13.54;58.89;102904.78;5098790;28;20404;-68
2022/03/22 01:29:38;;;;;;;68.20;43.35;;;13.20;99.90;;;13.52;58.95;102903.88;5117077;28;20489;-68
2022/03/22 01:32:09;;;;;;;66.07;44.42;;;13.20;99.90;;;11.13;58.49;102475.81;5098599;28;20546;-68
2022/03/22 01:34:37;;;;;;;63.67;44.05;;;13.20;99.90;;;13.55;58.78;102903.91;5116692;28;20046;-68
2022/03/22 01:37:06;;;;;;;67.35;44.50;;;13.20;99.90;;;13.58;58.58;102903.06;5116620;28;20088;-69
2022/03/22 01:39:35;;;;;;;65.05;43.28;;;13.30;99.90;;;13.34;58.78;102858.38;5116585;28;20457;-68
2022/03/22 01:42:06;;;;;;;63.53;44.40;;;13.20;99.90;;;13.56;58.69;102889.75;5098581;28;20110;-68
2022/03/22 01:44:35;;;;;;;64.63;42.92;;;13.30;99.90;;;13.56;58.84;102892.41;5098379;28;20532;-68
2022/03/22 01:47:05;;;;;;;65.88;44.33;;;13.20;99.90;;;13.53;59.01;102889.69;5116664;28;20044;-68
2022/03/22 01:49:34;;;;;;;66.35;44.47;;;13.30;99.90;;;13.52;59.35;102889.69;5116692;28;20433;-68
2022/03/22 01:52:06;;;;;;;67.97;43.72;;;13.20;99.90;;;13.58;59.50;102890.69;5116160;28;20036;-69
2022/03/22 01:54:35;;;;;;;66.50;44.67;;;13.20;99.90;;;13.57;59.50;102886.22;5116319;28;20050;-68
2022/03/22 01:57:07;;;;;;;67.85;43.63;;;13.30;99.90;;;13.62;59.55;102888.06;5116482;28;20044;-69
2022/03/22 01:59:36;;;;;;;64.57;43.20;;;13.30;99.90;;;13.55;59.31;102882.63;5116382;28;20397;-68
2022/03/22 02:07:53;;;;;;;68.72;44.55;;;13.30;99.90;;;13.13;59.65;102810.19;5013432;28;20540;-68
2022/03/22 02:10:22;;;;;;;67.43;45.35;;;13.30;99.90;;;13.52;59.77;102871.06;5013292;28;20530;-68
2022/03/22 02:12:52;;;;;;;69.82;45.33;;;13.30;99.90;;;13.33;59.92;102853.03;5060623;28;20059;-68
2022/03/22 02:15:22;;;;;;;65.90;45.60;;;13.20;99.90;;;13.48;60.10;102878.09;5116061;28;20083;-68
2022/03/22 02:17:52;;;;;;;74.63;47.40;;;13.20;99.90;;;13.21;60.14;102835.13;5115824;28;20397;-68
2022/03/22 02:20:20;;;;;;;67.90;46.78;;;13.20;99.90;;;13.48;60.31;102872.78;5115758;28;20047;-68
2022/03/22 02:22:53;;;;;;;67.22;45.38;;;13.20;99.90;;;13.48;60.28;102866.56;5115685;28;20036;-68
2022/03/22 02:25:23;;;;;;;67.65;45.25;;;13.20;99.90;;;13.45;60.43;102880.69;5097755;28;20224;-68
2022/03/22 02:27:53;;;;;;;72.40;47.15;;;13.20;99.90;;;13.34;60.76;102890.28;5097640;28;20073;-68
2022/03/22 02:30:24;;;;;;;77.47;46.65;;;13.10;99.90;;;13.37;60.64;102871.72;5115871;28;20392;-68
2022/03/22 02:32:55;;;;;;;69.60;46.60;;;13.10;99.90;;;13.39;60.73;102863.78;5115431;28;20035;-68
2022/03/22 02:35:25;;;;;;;70.95;48.22;;;13.10;99.90;;;13.29;60.70;102861.81;5115525;28;20432;-68
2022/03/22 02:37:54;;;;;;;70.43;47.00;;;13.10;99.90;;;13.28;61.10;102866.25;5114678;28;20040;-68
2022/03/22 02:40:26;;;;;;;70.70;47.00;;;13.10;99.90;;;13.29;60.91;102862.72;5115447;28;20069;-68
2022/03/22 02:42:55;;;;;;;73.97;47.08;;;13.10;99.90;;;13.16;60.98;102850.09;5115668;28;20047;-68
2022/03/22 02:45:25;;;;;;;71.80;47.00;;;13.00;99.90;;;13.29;61.06;102872.47;5115320;28;20507;-68
2022/03/22 02:47:53;;;;;;;69.93;45.75;;;13.00;99.90;;;13.31;61.12;102871.63;5114563;28;20399;-68
2022/03/22 02:50:23;;;;;;;69.63;47.25;;;13.00;99.90;;;13.21;61.27;102866.13;5115360;28;20062;-68
2022/03/22 02:52:51;;;;;;;73.78;48.13;;;12.90;99.90;;;13.17;61.43;102872.25;5115387;28;20043;-68
2022/03/22 02:55:21;;;;;;;73.32;49.15;;;12.90;99.90;;;13.20;61.39;102865.22;5115387;28;20115;-68
2022/03/22 02:57:51;;;;;;;66.07;45.67;;;12.90;99.90;;;13.14;61.85;102859.78;5115034;28;20119;-68
2022/03/22 03:00:20;;;;;;;74.25;47.90;;;12.90;99.90;;;13.08;61.92;102865.03;5114959;28;20516;-68
2022/03/22 03:02:51;;;;;;;81.55;47.42;;;12.80;99.90;;;12.88;62.46;102865.50;5114879;28;20507;-68
2022/03/22 03:05:21;;;;;;;76.15;49.35;;;12.80;99.90;;;12.44;63.75;102859.34;5096675;28;20465;-69
2022/03/22 03:07:50;;;;;;;88.10;49.17;;;12.40;99.90;;;12.21;64.12;102847.38;5114913;28;20070;-68
2022/03/22 03:10:19;;;;;;;75.40;48.05;;;12.20;99.90;;;12.35;64.38;102857.38;5114725;28;20093;-68
2022/03/22 03:12:58;;;;;;;75.35;49.40;;;12.10;99.90;;;12.29;64.60;102864.34;5114686;28;20039;-68
2022/03/22 03:15:27;;;;;;;72.75;48.50;;;12.10;99.90;;;12.11;65.25;102869.25;5114767;28;20044;-68
2022/03/22 03:17:55;;;;;;;78.07;50.47;;;11.90;99.90;;;11.29;65.51;102713.66;5096703;28;20431;-68
2022/03/22 03:20:27;;;;;;;81.72;49.47;;;11.90;99.90;;;11.89;65.92;102845.78;5096703;28;20051;-68
2022/03/22 03:22:55;;;;;;;73.43;49.35;;;11.80;99.90;;;11.73;66.49;102845.44;5114537;28;20046;-68
2022/03/22 03:25:25;;;;;;;79.35;50.08;;;11.70;99.90;;;11.85;66.60;102866.03;5114541;28;20040;-68
2022/03/22 03:27:55;;;;;;;80.30;50.60;;;11.70;99.90;;;11.72;67.05;102826.84;5096407;28;20043;-69
2022/03/22 03:30:24;;;;;;;77.82;49.72;;;11.60;99.90;;;11.95;66.93;102862.72;5114446;28;20035;-69
2022/03/22 03:32:53;;;;;;;79.05;51.22;;;11.70;99.90;;;11.82;67.22;102844.75;5114235;28;20106;-69
2022/03/22 03:35:21;;;;;;;81.50;49.30;;;11.70;99.90;;;12.00;67.06;102861.06;5114310;28;20040;-69
2022/03/22 03:37:50;;;;;;;83.28;50.90;;;11.70;99.90;;;12.00;67.07;102860.19;5114856;28;20035;-69
2022/03/22 03:40:19;;;;;;;71.60;49.22;;;11.70;99.90;;;12.15;66.82;102864.06;5114376;28;20043;-68
2022/03/22 03:42:46;;;;;;;75.20;49.88;;;11.80;99.90;;;12.28;66.43;102859.88;5114429;28;20434;-68
2022/03/22 03:48:02;;;;;;;85.47;50.45;;;12.00;99.90;;;12.35;66.24;102867.13;5096231;28;20122;-69
2022/03/22 03:50:31;;;;;;;71.00;48.95;;;12.00;99.90;;;12.02;66.37;102832.81;5114243;28;20046;-68
2022/03/22 03:53:02;;;;;;;81.35;50.67;;;12.00;99.90;;;12.05;66.78;102858.53;5113870;28;20055;-68
2022/03/22 03:55:31;;;;;;;74.07;49.08;;;11.90;99.90;;;11.98;67.38;102861.91;5114309;28;20051;-68
2022/03/22 03:58:00;;;;;;;79.20;51.03;;;11.80;99.90;;;12.04;67.22;102875.31;5095575;28;20039;-69
2022/03/22 04:00:32;;;;;;;81.93;51.22;;;11.70;99.90;;;11.92;67.57;102881.25;5113864;28;20036;-68
2022/03/22 04:03:01;;;;;;;78.40;50.00;;;11.70;99.90;;;12.03;67.67;102881.47;5113958;28;20040;-68
2022/03/22 04:05:30;;;;;;;76.40;50.33;;;11.70;99.90;;;12.13;67.55;102878.16;5113768;28;20118;-68
2022/03/22 04:07:58;;;;;;;78.50;49.58;;;11.80;99.90;;;12.24;67.20;102876.59;5113957;28;20067;-69
2022/03/22 04:10:27;;;;;;;80.25;49.88;;;11.90;99.90;;;12.34;66.73;102870.63;5113506;28;20115;-68
2022/03/22 04:12:56;;;;;;;72.50;48.70;;;12.00;99.90;;;12.41;66.58;102875.19;5113556;28;20496;-68
2022/03/22 04:15:25;;;;;;;75.43;49.88;;;12.10;99.90;;;12.46;66.14;102868.25;5095349;28;20051;-68
2022/03/22 04:17:57;;;;;;;75.32;48.28;;;12.20;99.90;;;12.39;65.96;102850.38;5113897;28;20044;-69
2022/03/22 04:20:26;;;;;;;76.60;49.58;;;12.20;99.90;;;11.90;65.86;102754.75;5113593;28;20497;-69
2022/03/22 04:22:55;;;;;;;76.97;49.80;;;12.30;99.90;;;12.63;65.55;102883.63;5113584;28;20093;-69
2022/03/22 04:25:24;;;;;;;78.47;48.83;;;12.30;99.90;;;12.69;65.33;102889.06;5113768;28;20425;-68
2022/03/22 04:33:26;;;;;;;76.85;48.33;;;12.40;99.90;;;12.72;65.08;102885.56;5113498;28;20039;-68
2022/03/22 04:35:55;;;;;;;74.47;48.53;;;12.40;99.90;;;12.64;65.11;102871.22;5095591;28;20047;-68
2022/03/22 04:38:26;;;;;;;72.13;48.05;;;12.40;99.90;;;12.74;65.03;102881.16;5113420;28;20039;-69
2022/03/22 04:40:56;;;;;;;70.22;47.35;;;12.40;99.90;;;12.78;64.89;102883.00;5095440;28;20443;-68
2022/03/22 04:43:25;;;;;;;75.18;48.20;;;12.40;99.90;;;12.78;64.98;102883.00;5113294;28;20040;-69
2022/03/22 04:45:54;;;;;;;72.38;47.60;;;12.50;99.90;;;12.83;64.90;102885.78;5113271;28;20040;-68
2022/03/22 04:48:25;;;;;;;76.15;48.20;;;12.50;99.90;;;12.66;64.59;102850.91;5113589;28;20039;-68
2022/03/22 04:56:43;;;;;;;74.32;47.70;;;12.50;99.90;;;12.81;64.75;102885.75;5113283;28;20071;-68
2022/03/22 04:56:47;;;;;;;73.55;48.95;;;12.50;99.90;;;12.57;65.31;102893.22;5095298;28;20377;-68
2022/03/22 04:59:19;;;;;;;72.70;49.22;;;12.40;99.90;;;12.24;66.98;102888.13;5114005;28;20047;-69
2022/03/22 05:01:49;;;;;;;75.63;48.17;;;11.90;99.90;;;11.91;67.77;102898.00;5117524;28;20039;-68
2022/03/22 05:04:19;;;;;;;73.05;47.08;;;11.60;99.90;;;11.89;68.17;102877.59;5117537;28;20050;-68
2022/03/22 05:06:48;;;;;;;77.45;49.33;;;11.60;99.90;;;12.11;68.06;102894.03;5117463;28;20039;-67
2022/03/22 05:09:17;;;;;;;71.82;47.60;;;11.70;99.90;;;12.08;67.95;102890.44;5117314;28;20040;-65
2022/03/22 05:11:46;;;;;;;79.78;50.08;;;11.80;99.90;;;12.06;68.17;102900.13;5117063;28;20067;-66
2022/03/22 05:14:14;;;;;;;76.65;48.53;;;11.70;99.90;;;11.86;68.58;102893.47;5116866;28;20056;-66
2022/03/22 05:16:46;;;;;;;82.60;49.83;;;11.60;99.90;;;11.92;68.78;102898.91;5117260;28;20111;-66
2022/03/22 05:19:15;;;;;;;76.25;49.22;;;11.60;99.90;;;11.77;69.03;102873.81;5117109;28;20434;-65
2022/03/22 05:21:45;;;;;;;71.13;47.17;;;11.60;99.90;;;11.86;69.20;102890.81;5116862;28;20096;-67
2022/03/22 05:24:14;;;;;;;77.50;50.10;;;11.60;99.90;;;11.89;69.13;102893.50;5098568;28;20055;-67
2022/03/22 05:26:45;;;;;;;72.28;48.83;;;11.60;99.90;;;11.91;69.31;102894.44;5117399;28;20043;-66
2022/03/22 05:29:14;;;;;;;71.28;48.05;;;11.70;99.90;;;12.12;68.98;102906.44;5117340;28;20136;-67
2022/03/22 05:31:43;;;;;;;73.88;49.33;;;11.80;99.90;;;12.16;68.45;102904.72;5116740;28;20431;-66
2022/03/22 05:34:11;;;;;;;68.43;46.25;;;11.80;99.90;;;12.21;68.21;102906.66;5116655;28;20468;-66
2022/03/22 05:36:40;;;;;;;69.68;47.78;;;11.90;99.90;;;12.20;68.34;102888.03;5116624;28;20040;-67
2022/03/22 05:39:10;;;;;;;72.47;46.58;;;11.90;99.90;;;12.33;68.00;102909.53;5116599;28;20047;-67
2022/03/22 05:41:39;;;;;;;73.43;47.05;;;12.00;99.90;;;12.41;67.98;102917.66;5116599;28;20401;-67
2022/03/22 05:44:13;;;;;;;72.85;47.03;;;12.10;99.90;;;12.36;68.13;102916.69;5116691;28;20052;-67
2022/03/22 05:46:42;;;;;;;73.95;48.20;;;12.00;99.90;;;11.58;67.92;102769.94;5116529;28;20040;-66
2022/03/22 05:49:11;;;;;;;73.90;47.20;;;12.10;99.90;;;12.41;67.97;102918.56;5116382;28;20035;-66
2022/03/22 05:51:40;;;;;;;67.75;46.47;;;12.10;99.90;;;12.39;68.02;102908.78;5116299;28;20046;-67
2022/03/22 05:54:10;;;;;;;73.97;46.92;;;12.10;99.90;;;12.30;68.32;102905.94;5116423;28;20043;-67
2022/03/22 05:56:39;;;;;;;67.32;46.30;;;12.00;99.90;;;12.13;68.62;102891.41;5116586;28;20040;-67
2022/03/22 05:59:07;;;;;;;72.05;46.13;;;12.00;99.90;;;11.92;69.24;102885.63;5116476;28;20036;-66
2022/03/22 06:01:36;;;;;;;69.63;46.78;;;11.80;99.90;;;11.74;70.43;102916.19;5116111;28;20074;-68
2022/03/22 06:04:05;;;;;;;71.55;45.97;;;11.50;99.90;;;11.77;70.71;102916.25;5116068;28;20047;-67
2022/03/22 06:06:35;;;;;;;71.30;45.83;;;11.40;99.90;;;11.71;70.99;102921.41;5116309;28;20063;-67
2022/03/22 06:09:04;;;;;;;72.47;46.55;;;11.30;99.90;;;11.62;71.29;102926.44;5116320;28;20039;-67
2022/03/22 06:11:35;;;;;;;72.50;45.85;;;11.30;99.90;;;11.54;71.77;102917.41;5114509;28;20164;-67
2022/03/22 06:14:04;;;;;;;68.53;45.17;;;11.20;99.90;;;11.19;72.95;102923.56;5115920;28;20462;-66
2022/03/22 06:16:33;;;;;;;68.45;45.30;;;11.00;99.90;;;11.24;73.39;102924.59;5115791;28;20039;-67
2022/03/22 06:19:02;;;;;;;77.53;48.08;;;10.90;99.90;;;11.43;72.89;102926.88;5115644;28;20043;-65
2022/03/22 06:21:31;;;;;;;67.28;46.15;;;11.00;99.90;;;11.53;72.61;102922.69;5115659;28;20043;-66
2022/03/22 06:24:03;;;;;;;73.28;47.00;;;11.20;99.90;;;11.57;72.16;102912.22;5116264;28;20067;-66
2022/03/22 06:26:33;;;;;;;75.95;46.88;;;11.40;99.90;;;11.71;71.69;102955.88;5115749;28;20184;-66
2022/03/22 06:29:02;;;;;;;68.78;46.97;;;11.40;99.90;;;11.70;72.02;102937.28;5097578;28;20047;-66
2022/03/22 06:31:33;;;;;;;75.15;47.60;;;11.30;99.90;;;11.79;71.82;102941.03;5115789;28;20147;-67
2022/03/22 06:34:02;;;;;;;;;;;11.40;99.90;;;11.89;71.42;102933.28;5116243;28;20066;-66
2022/03/22 06:36:30;;;;;;;75.25;47.03;;;11.60;99.90;;;11.93;70.99;102908.63;5115365;28;19926;-66
2022/03/22 06:38:59;;;;;;;69.80;46.13;;;11.70;99.90;;;12.20;70.29;102938.44;5097318;28;20050;-67
2022/03/22 06:41:28;;;;;;;72.75;46.40;;;11.80;99.90;;;12.29;70.03;102934.22;5115368;28;20043;-67
2022/03/22 06:43:58;;;;;;;70.45;48.05;;;12.00;99.90;;;12.54;69.21;102946.28;5097257;28;20415;-67
2022/03/22 06:46:27;;;;;;;71.07;46.03;;;12.10;99.90;;;12.53;68.76;102949.78;5115617;28;20044;-67
2022/03/22 06:48:56;;;;;;;66.38;45.88;;;12.20;99.90;;;12.52;68.66;102948.00;5097153;28;20051;-67
2022/03/22 06:51:27;;;;;;;64.30;44.60;;;12.20;99.90;;;12.48;68.62;102954.09;5097194;28;20133;-68
2022/03/22 06:53:56;;;;;;;68.70;45.90;;;12.20;99.90;;;12.42;68.91;102951.31;5115347;28;20044;-68
2022/03/22 06:56:25;;;;;;;65.75;43.58;;;12.00;99.90;;;12.69;68.69;102951.91;5114901;28;20039;-67
2022/03/22 06:58:53;;;;;;;64.95;44.45;;;12.30;99.90;;;12.81;67.98;102954.81;5114874;28;20425;-67
2022/03/22 07:01:24;;;;;;;65.50;44.30;;;12.40;99.90;;;13.06;67.56;102956.19;5115196;28;20039;-67
2022/03/22 07:03:53;;;;;;;67.00;43.20;;;12.60;99.90;;;13.27;66.76;102960.16;5114975;28;20070;-67
2022/03/22 07:06:22;;;;;;;56.22;41.20;;;12.90;99.90;;;13.34;65.68;102959.38;5115100;28;20046;-67
2022/03/22 07:08:52;;;;;;;65.47;42.17;;;13.00;99.90;;;13.23;65.87;102955.66;5114987;28;20067;-67
2022/03/22 07:14:07;;;;;;;60.35;41.88;;;13.00;99.90;;;13.15;65.18;102905.88;5114550;28;20039;-67
2022/03/22 07:16:37;;;;;;;56.97;41.08;;;13.10;99.90;;;13.80;64.77;102957.50;5114639;28;20077;-67
2022/03/22 07:19:06;;;;;;;63.30;42.47;;;13.40;99.90;;;14.04;64.14;102957.88;5096725;28;20504;-67
2022/03/22 07:21:35;;;;;;;61.10;40.35;;;13.70;99.90;;;14.08;63.43;102930.44;5114713;28;20039;-67
2022/03/22 07:24:05;;;;;;;54.90;39.58;;;13.80;99.90;;;14.15;62.85;102954.50;5114180;28;20382;-68
2022/03/22 07:26:33;;;;;;;52.38;40.17;;;13.80;99.90;;;14.05;63.43;102957.88;5114363;28;20067;-67
2022/03/22 07:29:06;;;;;;;61.45;40.40;;;13.70;99.90;;;13.96;63.63;102971.06;5114642;28;20066;-67
2022/03/22 07:31:38;;;;;;;56.33;40.33;;;13.60;99.90;;;13.60;64.27;102957.19;5114285;28;20423;-68
2022/03/22 07:34:12;;;;;;;58.78;39.75;;;13.30;99.90;;;13.31;64.39;102922.13;5114263;28;20115;-67
2022/03/22 07:36:40;;;;;;;52.92;38.65;;;13.30;99.90;;;13.46;64.25;102953.38;5114308;28;20040;-67
2022/03/22 07:39:20;;;;;;;56.45;39.33;;;13.20;99.90;;;13.48;65.33;102978.25;5114185;28;20044;-67
2022/03/22 07:41:49;;;;;;;54.90;39.05;;;13.10;99.90;;;13.35;65.67;102939.94;5114271;28;20115;-67
2022/03/22 07:44:19;;;;;;;58.78;38.55;;;13.20;99.90;;;13.83;64.14;102981.47;5114361;28;20398;-67
2022/03/22 07:46:49;;;;;;;52.70;39.33;;;13.40;99.90;;;13.86;64.79;102984.22;5114045;28;20054;-67
2022/03/22 07:54:49;;;;;;;53.92;37.38;;;13.80;99.90;;;13.81;63.01;102928.25;5095930;28;20377;-67
2022/03/22 07:57:19;;;;;;;59.05;36.58;;;13.80;99.90;;;14.14;63.77;102971.34;5095752;28;20089;-67
2022/03/22 07:59:48;;;;;;;47.58;35.42;;;13.80;99.90;;;14.29;62.85;102970.69;5113593;28;20042;-67
2022/03/22 08:02:18;;;;;;;48.15;34.85;;;13.90;99.90;;;14.47;62.56;102978.94;5113981;28;20448;-67
2022/03/22 08:04:48;;;;;;;49.78;33.40;;;14.00;99.90;;;14.50;62.26;102989.63;5113876;28;20044;-67
2022/03/22 08:07:17;;;;;;;46.17;33.25;;;14.10;99.90;;;14.42;61.56;102977.97;5114038;28;20043;-67
2022/03/22 08:09:45;;;;;;;46.25;33.97;;;14.10;99.90;;;14.61;61.41;102969.38;5113804;28;20515;-66
2022/03/22 08:12:14;;;;;;;51.05;35.38;;;14.30;99.90;;;14.53;62.46;102987.03;5095769;28;20528;-67
2022/03/22 08:14:42;;;;;;;46.50;33.35;;;14.20;99.90;;;14.24;62.96;102940.44;5114121;28;20043;-67
2022/03/22 08:17:12;;;;;;;47.45;35.00;;;14.20;99.90;;;14.45;62.31;102989.59;5113951;28;20104;-67
2022/03/22 08:19:42;;;;;;;53.45;34.05;;;14.10;99.90;;;14.57;62.47;102990.63;5113555;28;20043;-67
2022/03/22 08:22:10;;;;;;;53.40;34.35;;;14.20;99.90;;;14.39;63.94;102989.50;5113828;28;20043;-67
2022/03/22 08:24:39;;;;;;;59.50;35.88;;;14.10;99.90;;;14.48;64.75;102991.38;5113768;28;20043;-67
2022/03/22 08:27:08;;;;;;;49.60;34.95;;;14.10;99.90;;;14.53;64.28;102994.09;5113400;28;20039;-67
2022/03/22 08:29:37;;;;;;;50.30;35.22;;;14.20;99.90;;;14.50;64.65;102986.97;5113453;28;20512;-67
2022/03/22 08:32:09;;;;;;;48.10;33.17;;;14.20;99.90;;;14.69;63.23;103002.31;5113685;28;20044;-67
2022/03/22 08:34:38;;;;;;;52.17;33.30;;;14.30;99.90;;;14.63;63.17;102978.28;5112943;28;20053;-67
2022/03/22 08:37:08;;;;;;;50.92;33.15;;;14.40;99.90;;;14.63;62.86;103009.34;5113382;28;20040;-67
2022/03/22 08:39:37;;;;;;;46.55;33.63;;;14.30;99.90;;;14.72;62.31;103015.69;5113836;28;20047;-67
2022/03/22 08:42:07;;;;;;;44.40;31.73;;;14.30;99.90;;;14.76;61.15;103017.53;5113598;28;20559;-67
2022/03/22 08:44:36;;;;;;;45.90;32.20;;;14.40;99.90;;;14.37;60.27;102918.44;5095371;28;20049;-67
2022/03/22 08:47:06;;;;;;;41.80;29.73;;;14.60;99.90;;;15.25;60.47;103011.88;5113052;28;20632;-67
2022/03/22 08:49:35;;;;;;;40.53;29.30;;;14.70;99.90;;;15.21;58.46;102988.72;5113515;28;20044;-67
2022/03/22 08:52:04;;;;;;;43.88;29.45;;;15.00;99.90;;;15.67;58.82;103016.78;5113243;28;20448;-67
2022/03/22 08:54:35;;;;;;;43.22;30.73;;;15.20;99.90;;;15.70;59.11;103015.94;5113153;28;20499;-66
2022/03/22 08:57:04;;;;;;;41.58;29.65;;;15.30;99.90;;;15.51;58.74;102987.25;5113136;28;20052;-67
2022/03/22 08:59:34;;;;;;;46.63;29.38;;;15.30;99.90;;;16.06;59.08;103024.22;5113206;28;20097;-67
2022/03/22 09:02:03;;;;;;;44.13;29.73;;;15.50;99.90;;;16.13;57.06;103020.72;5113048;28;20409;-66
2022/03/22 09:07:18;;;;;;;40.20;27.17;;;15.70;99.90;;;16.19;56.12;103031.44;5113545;28;20044;-67
2022/03/22 09:09:48;;;;;;;36.97;26.10;;;15.80;99.90;;;16.37;55.74;103031.56;5112769;28;20505;-66
2022/03/22 09:12:16;;;;;;;38.78;26.17;;;15.90;99.90;;;16.50;54.11;103022.78;5113186;28;20481;-67
2022/03/22 09:14:46;;;;;;;34.95;24.90;;;16.10;99.90;;;16.40;53.88;103034.25;5112969;28;20051;-67
2022/03/22 09:17:14;;;;;;;34.10;24.45;;;16.10;99.90;;;16.60;54.27;103037.97;5113353;28;20041;-67
2022/03/22 09:19:43;;;;;;;35.10;24.98;;;16.20;99.90;;;16.51;54.32;103029.91;5113335;28;20389;-66
2022/03/22 09:22:27;;;;;;;36.60;25.75;;;16.20;99.90;;;16.65;53.31;103028.19;5112990;28;20482;-67
2022/03/22 09:24:57;;;;;;;38.90;25.73;;;16.30;99.90;;;16.72;54.05;103030.03;5112878;28;20047;-67
2022/03/22 09:27:26;;;;;;;32.58;23.63;;;16.30;99.90;;;16.64;52.91;103006.81;5095126;28;20054;-67
2022/03/22 09:29:54;;;;;;;31.92;24.75;;;16.40;99.90;;;16.53;52.81;102976.50;5113150;28;20090;-67
2022/03/22 09:32:23;;;;;;;39.45;24.65;;;16.50;99.90;;;16.95;52.03;102990.91;5112797;28;20043;-67
2022/03/22 09:34:52;;;;;;;34.53;25.08;;;16.60;99.90;;;17.36;51.90;103033.84;5112713;28;20497;-67
2022/03/22 09:37:21;;;;;;;32.95;24.75;;;16.90;99.90;;;17.37;51.19;103022.22;5112697;28;20047;-67
2022/03/22 09:39:49;;;;;;;33.03;24.10;;;17.00;99.90;;;17.42;50.28;102985.66;5094706;28;20117;-67
2022/03/22 09:42:19;;;;;;;32.95;24.08;;;17.20;99.90;;;18.21;49.95;103033.91;5112800;28;20043;-67
2022/03/22 09:44:49;;;;;;;35.30;25.20;;;17.60;99.90;;;18.74;49.45;103030.25;5113041;28;20051;-67
2022/03/22 09:47:18;;;;;;;33.55;23.85;;;18.20;99.90;;;19.08;47.47;103011.31;5116176;28;20035;-67
2022/03/22 09:49:48;;;;;;;32.20;24.77;;;18.80;99.90;;;18.70;47.46;103028.47;5116372;28;20405;-67
2022/03/22 09:52:16;;;;;;;32.70;23.42;;;18.50;99.90;;;18.03;47.34;102963.41;5116386;28;20035;-67
2022/03/22 09:54:46;;;;;;;32.47;23.50;;;18.20;99.90;;;18.18;46.41;103031.22;5116697;28;20046;-67
2022/03/22 09:57:16;;;;;;;33.75;24.23;;;17.90;99.90;;;18.15;47.80;103010.69;5116353;28;20086;-67
2022/03/22 09:59:46;;;;;;;31.98;23.63;;;17.90;99.90;;;18.94;45.90;103024.78;5098182;28;20413;-67
2022/03/22 10:02:15;;;;;;;30.80;24.13;;;18.40;99.90;;;19.20;45.43;103030.03;5116191;28;20035;-67
2022/03/22 10:04:45;;;;;;;36.72;24.02;;;18.70;99.90;;;19.51;45.02;103026.31;5098118;28;20043;-68
2022/03/22 10:07:20;;;;;;;31.07;24.37;;;19.10;99.90;;;19.74;44.06;102998.34;5116122;28;20047;-67
2022/03/22 10:09:53;;;;;;;39.38;23.85;;;19.50;99.90;;;20.04;43.77;103037.50;5097747;28;20368;-66
2022/03/22 10:12:29;;;;;;;33.47;23.55;;;19.70;99.90;;;20.28;43.23;103014.94;5116186;28;20126;-67
2022/03/22 10:15:09;;;;;;;32.47;23.17;;;20.00;99.90;;;20.53;43.40;103022.72;5115926;28;20027;-67
2022/03/22 10:17:39;;;;;;;31.38;22.90;;;20.20;99.90;;;20.79;41.33;103027.78;5116191;28;20040;-67
2022/03/22 10:20:09;;;;;;;32.58;24.05;;;20.50;99.90;;;21.00;41.17;103032.03;5115845;28;20038;-67
2022/03/22 10:22:38;;;;;;;;;;;20.70;99.90;;;20.57;41.04;103023.56;5116245;28;20550;-67
2022/03/22 10:25:09;;;;;;;31.23;23.45;;;20.40;99.90;;;20.44;41.52;103008.50;5115449;28;19923;-67
2022/03/22 10:27:39;;;;;;;30.05;22.52;;;20.20;99.90;;;20.75;41.24;103020.66;5115619;28;20451;-67
2022/03/22 10:30:30;;;;;;;29.97;22.27;;;20.50;99.90;;;21.23;40.94;103036.22;5115525;28;20070;-67
2022/03/22 10:33:00;;;;;;;32.75;23.63;;;20.90;99.90;;;21.43;40.32;103012.56;5115945;28;20036;-67
2022/03/22 10:35:31;;;;;;;30.40;22.15;;;21.30;99.90;;;21.74;39.79;103042.63;5115624;28;20046;-67
2022/03/22 10:38:02;;;;;;;32.50;22.23;;;21.50;99.90;;;21.77;39.26;103034.50;5115882;28;20089;-68
2022/03/22 10:40:35;;;;;;;34.75;23.08;;;21.50;99.90;;;21.01;39.74;103033.81;5115383;28;20117;-67
2022/03/22 10:43:06;;;;;;;34.38;23.58;;;21.00;99.90;;;20.55;40.57;103023.59;5115381;28;20039;-67